Time;durP1;ratioP1;P1;durP2;ratioP2;P2;SDS_P1;SDS_P2;PMS_P1;PMS_P2;Temp;Humidity;BMP_temperature;BMP_pressure;BME280_temperature;BME280_humidity;BME280_pressure;Samples;Min_cycle;Max_cycle;Signal;HPM_P1;HPM_P2
2023/03/21 00:00:28;;;;;;;11.65;4.80;;;;;;;9.59;100.00;100027.84;4909965;29;20029;-94
2023/03/21 00:02:54;;;;;;;14.30;4.28;;;;;;;9.89;100.00;100037.22;4947687;28;20460;-94
2023/03/21 00:05:19;;;;;;;12.05;4.43;;;;;;;9.71;100.00;100036.59;4931785;29;20044;-96
2023/03/21 00:07:46;;;;;;;16.70;4.90;;;;;;;9.65;100.00;100030.84;4921803;29;20037;-96
2023/03/21 00:10:11;;;;;;;17.10;4.00;;;;;;;9.82;100.00;100026.44;4912891;29;20033;-95
2023/03/21 00:12:37;;;;;;;13.55;4.45;;;;;;;9.74;100.00;100008.88;4897677;29;20365;-94
2023/03/21 00:15:05;;;;;;;13.93;4.03;;;;;;;9.67;100.00;100009.34;4912616;29;20025;-95
2023/03/21 00:17:31;;;;;;;8.98;3.70;;;;;;;9.79;100.00;100042.09;4912631;29;20028;-95
2023/03/21 00:19:59;;;;;;;18.63;3.53;;;;;;;9.81;100.00;100024.81;4896996;29;20456;-95
2023/03/21 00:22:25;;;;;;;13.60;3.75;;;;;;;9.82;100.00;100024.69;4903688;29;20032;-96
2023/03/21 00:24:51;;;;;;;14.55;3.08;;;;;;;9.72;100.00;100004.75;4947495;28;20035;-95
2023/03/21 00:27:18;;;;;;;25.70;5.15;;;;;;;9.70;100.00;100012.53;4947279;28;20028;-95
2023/03/21 00:29:44;;;;;;;9.45;3.97;;;;;;;9.34;100.00;100025.88;4947646;28;20035;-93
2023/03/21 00:32:09;;;;;;;18.23;4.40;;;;;;;9.21;100.00;100026.59;4947504;28;20020;-94
2023/03/21 00:34:37;;;;;;;23.00;4.55;;;;;;;9.35;100.00;100018.06;4947224;28;20028;-95
2023/03/21 00:37:03;;;;;;;20.45;4.85;;;;;;;9.48;100.00;99999.31;4908202;29;20055;-94
2023/03/21 00:39:28;;;;;;;14.73;4.50;;;;;;;9.42;100.00;100006.47;4912669;29;20507;-94
2023/03/21 00:41:53;;;;;;;18.65;4.40;;;;;;;9.39;100.00;99998.13;4896828;29;20138;-96
2023/03/21 00:44:20;;;;;;;24.77;4.93;;;;;;;9.60;100.00;100004.53;4912854;29;20072;-94
2023/03/21 00:46:45;;;;;;;20.23;3.95;;;;;;;9.41;100.00;99980.81;4896440;29;20079;-94
2023/03/21 00:49:10;;;;;;;22.05;4.15;;;;;;;9.47;100.00;99980.44;4912475;29;20507;-93
2023/03/21 00:51:36;;;;;;;19.85;3.40;;;;;;;9.48;100.00;99974.38;4916165;29;20035;-94
2023/03/21 00:54:04;;;;;;;26.40;3.60;;;;;;;9.67;100.00;99992.13;4931137;29;20410;-96
2023/03/21 00:56:30;;;;;;;16.05;3.30;;;;;;;9.57;100.00;99991.84;4947302;28;20028;-94
2023/03/21 00:58:55;;;;;;;19.85;4.28;;;;;;;9.39;100.00;99957.75;4947112;28;20407;-94
2023/03/21 01:01:21;;;;;;;14.70;3.72;;;;;;;9.51;100.00;99973.34;4947045;28;20032;-96
2023/03/21 01:04:04;;;;;;;20.30;3.97;;;;;;;9.26;100.00;99972.25;4931630;29;20072;-94
2023/03/21 01:06:30;;;;;;;16.88;3.63;;;;;;;9.32;100.00;99981.38;4930375;29;20123;-93
2023/03/21 01:08:55;;;;;;;17.70;3.20;;;;;;;9.34;100.00;99998.41;4915671;29;20123;-96
2023/03/21 01:11:24;;;;;;;16.35;4.22;;;;;;;9.34;100.00;99980.38;4930984;29;20487;-95
2023/03/21 01:13:49;;;;;;;19.27;4.75;;;;;;;9.31;100.00;99983.09;4931465;29;20299;-95
2023/03/21 01:16:15;;;;;;;19.52;3.47;;;;;;;9.15;100.00;99990.94;4915335;29;20319;-93
2023/03/21 01:18:41;;;;;;;17.70;4.55;;;;;;;9.23;100.00;99985.31;4915384;29;20119;-93
2023/03/21 01:21:12;;;;;;;14.45;3.53;;;;;;;9.29;100.00;99974.66;4948059;28;20063;-96
2023/03/21 01:23:40;;;;;;;14.52;3.72;;;;;;;9.24;100.00;99974.09;4919052;29;20028;-94
2023/03/21 01:26:06;;;;;;;15.90;3.00;;;;;;;9.14;100.00;99976.38;4934625;29;20036;-96
2023/03/21 01:28:32;;;;;;;12.73;3.60;;;;;;;9.20;100.00;99982.94;4918944;29;20032;-95
2023/03/21 01:30:59;;;;;;;18.60;3.80;;;;;;;9.18;100.00;99964.16;4934970;29;20514;-96
2023/03/21 01:33:25;;;;;;;10.15;4.63;;;;;;;9.20;100.00;99975.22;4934640;29;20024;-95
2023/03/21 01:35:50;;;;;;;17.00;3.60;;;;;;;9.04;100.00;99961.56;4915372;29;20394;-96
2023/03/21 01:38:16;;;;;;;10.68;3.50;;;;;;;9.04;100.00;99946.13;4918596;29;20031;-96
2023/03/21 01:40:44;;;;;;;10.93;3.47;;;;;;;9.04;100.00;99957.25;4949957;28;20028;-96
2023/03/21 01:43:22;;;;;;;15.50;3.00;;;;;;;9.33;100.00;99959.84;4950295;28;20024;-96
2023/03/21 01:46:09;;;;;;;11.70;2.85;;;;;;;9.37;100.00;99946.69;4950024;28;20071;-94
2023/03/21 01:48:38;;;;;;;12.00;3.40;;;;;;;9.18;100.00;99943.56;4934230;29;20024;-93
2023/03/21 01:51:04;;;;;;;7.40;2.92;;;;;;;9.01;100.00;99926.53;4931794;29;20088;-95
2023/03/21 01:53:35;;;;;;;8.95;2.83;;;;;;;9.12;100.00;99902.72;4918303;29;20024;-94
2023/03/21 01:56:15;;;;;;;9.13;3.23;;;;;;;9.12;100.00;99895.00;4949898;28;20100;-93
2023/03/21 01:58:42;;;;;;;12.98;2.67;;;;;;;9.11;100.00;99906.22;4933870;29;20279;-93
2023/03/21 02:01:09;;;;;;;9.40;2.78;;;;;;;9.25;100.00;99918.28;4918015;29;20062;-94
2023/03/21 02:03:36;;;;;;;19.10;4.38;;;;;;;9.25;100.00;99916.53;4933806;29;20020;-94
2023/03/21 02:06:11;;;;;;;12.57;4.35;;;;;;;9.25;100.00;99918.28;4926764;28;20085;-94
2023/03/21 02:08:36;;;;;;;9.45;3.15;;;;;;;9.42;100.00;99920.66;4911702;29;20056;-94
2023/03/21 02:11:03;;;;;;;13.02;2.50;;;;;;;9.38;100.00;99925.16;4895927;29;20067;-96
2023/03/21 02:13:28;;;;;;;9.50;2.75;;;;;;;9.21;100.00;99907.31;4896279;29;20525;-96
2023/03/21 02:16:16;;;;;;;18.05;3.35;;;;;;;9.18;100.00;99908.34;4911695;29;20025;-94
2023/03/21 02:18:48;;;;;;;12.05;3.50;;;;;;;9.27;100.00;99922.44;4895744;29;20033;-93
2023/03/21 02:21:22;;;;;;;16.38;3.35;;;;;;;9.32;100.00;99925.53;4909942;29;20032;-94
2023/03/21 02:23:47;;;;;;;16.58;4.63;;;;;;;9.21;100.00;99922.78;4914695;29;20474;-95
2023/03/21 02:26:23;;;;;;;15.27;4.80;;;;;;;9.13;100.00;99907.78;4914584;29;20116;-94
2023/03/21 02:29:34;;;;;;;13.10;3.58;;;;;;;9.21;100.00;99884.97;4898855;29;20076;-95
2023/03/21 02:32:11;;;;;;;17.33;4.38;;;;;;;9.04;100.00;99863.75;4913333;29;20033;-96
2023/03/21 02:34:52;;;;;;;18.08;4.28;;;;;;;9.16;100.00;99868.16;4898819;29;20056;-95
2023/03/21 02:37:40;;;;;;;24.73;6.50;;;;;;;9.23;100.00;99868.63;4915614;29;20173;-94
2023/03/21 02:40:29;;;;;;;21.20;5.10;;;;;;;9.25;100.00;99859.06;4946595;28;20036;-94
2023/03/21 02:43:16;;;;;;;21.75;4.38;;;;;;;9.18;100.00;99861.19;4933279;29;20518;-93
2023/03/21 02:45:49;;;;;;;17.60;5.32;;;;;;;8.76;100.00;99844.81;4926823;29;20088;-94
2023/03/21 02:48:23;;;;;;;20.25;5.82;;;;;;;8.72;100.00;99853.63;4898031;29;20120;-94
2023/03/21 02:50:54;;;;;;;20.77;5.60;;;;;;;8.63;100.00;99823.31;4914054;29;20029;-94
2023/03/21 02:53:22;;;;;;;22.20;6.60;;;;;;;8.67;100.00;99865.94;4900240;29;20028;-95
2023/03/21 02:55:49;;;;;;;27.45;7.20;;;;;;;8.52;100.00;99842.78;4933137;29;20084;-96
2023/03/21 02:58:19;;;;;;;31.02;6.47;;;;;;;8.76;100.00;99852.53;4933268;29;20502;-95
2023/03/21 03:00:47;;;;;;;25.88;6.63;;;;;;;8.65;100.00;99834.34;4917066;29;20039;-94
2023/03/21 03:03:13;;;;;;;21.67;6.10;;;;;;;8.75;100.00;99843.16;4948999;28;20080;-94
2023/03/21 03:05:44;;;;;;;31.30;6.35;;;;;;;8.78;100.00;99846.38;4932605;29;20024;-95
2023/03/21 03:08:42;;;;;;;32.30;7.60;;;;;;;8.76;100.00;99839.69;4915480;29;20042;-94
2023/03/21 03:11:19;;;;;;;32.45;7.40;;;;;;;8.79;100.00;99834.34;4902748;29;20048;-93
2023/03/21 03:13:57;;;;;;;26.25;7.70;;;;;;;8.85;100.00;99836.56;4913446;29;20029;-94
2023/03/21 03:16:25;;;;;;;36.78;8.18;;;;;;;8.91;100.00;99838.75;4913643;29;20044;-94
2023/03/21 03:18:55;;;;;;;35.28;7.53;;;;;;;8.85;100.00;99841.72;4913421;29;20025;-92
2023/03/21 03:21:39;;;;;;;30.50;7.90;;;;;;;8.80;100.00;99830.84;4897983;29;20496;-94
2023/03/21 03:24:16;;;;;;;45.38;7.40;;;;;;;8.77;100.00;99837.00;4913221;29;20036;-94
2023/03/21 03:26:58;;;;;;;23.70;6.85;;;;;;;8.82;100.00;99808.41;4904380;29;20031;-93
2023/03/21 03:29:28;;;;;;;39.60;8.32;;;;;;;8.85;100.00;99825.41;4932320;29;20028;-94
2023/03/21 03:32:24;;;;;;;38.88;8.70;;;;;;;8.91;100.00;99822.50;4932247;29;20024;-94
2023/03/21 03:34:55;;;;;;;38.95;8.60;;;;;;;8.73;100.00;99803.81;4912270;29;20033;-94
2023/03/21 03:37:25;;;;;;;29.65;8.65;;;;;;;8.79;100.00;99836.91;4948187;28;20055;-94
2023/03/21 03:40:09;;;;;;;23.67;7.82;;;;;;;8.85;100.00;99813.41;4932163;29;20091;-92
2023/03/21 03:42:41;;;;;;;33.35;8.38;;;;;;;8.90;100.00;99816.53;4929610;29;20040;-93
2023/03/21 03:45:08;;;;;;;22.60;7.15;;;;;;;8.80;100.00;99789.66;4928678;29;20115;-94
2023/03/21 03:47:33;;;;;;;23.38;7.72;;;;;;;8.97;100.00;99810.09;4896026;29;20060;-94
2023/03/21 03:50:05;;;;;;;33.58;6.90;;;;;;;8.98;100.00;99791.13;4912970;29;20032;-94
2023/03/21 03:52:35;;;;;;;27.50;7.05;;;;;;;8.83;100.00;99789.50;4913802;29;20119;-93
2023/03/21 03:55:01;;;;;;;22.17;6.57;;;;;;;8.84;100.00;99778.28;4897052;29;20035;-94
2023/03/21 03:57:28;;;;;;;16.60;6.43;;;;;;;8.97;100.00;99786.06;4896638;29;20029;-94
2023/03/21 03:59:54;;;;;;;23.00;8.32;;;;;;;8.92;100.00;99776.06;4912553;29;20036;-94
2023/03/21 04:02:20;;;;;;;22.13;6.85;;;;;;;8.85;100.00;99761.09;4929405;29;20123;-92
2023/03/21 04:04:46;;;;;;;24.98;7.45;;;;;;;9.10;100.00;99770.72;4947650;28;20111;-94
2023/03/21 04:07:11;;;;;;;23.17;7.38;;;;;;;8.92;100.00;99770.09;4947935;28;20042;-95
2023/03/21 04:09:36;;;;;;;24.88;6.70;;;;;;;8.90;100.00;99739.31;4915578;29;20042;-94
2023/03/21 04:12:02;;;;;;;22.55;6.63;;;;;;;9.21;100.00;99768.28;4947364;28;20028;-93
2023/03/21 04:14:28;;;;;;;25.20;6.22;;;;;;;9.09;100.00;99748.47;4915540;29;20032;-94
2023/03/21 04:16:53;;;;;;;20.27;5.90;;;;;;;9.17;100.00;99746.25;4945895;28;20056;-94
2023/03/21 04:19:19;;;;;;;22.80;5.60;;;;;;;9.34;100.00;99768.34;4930537;28;20044;-94
2023/03/21 04:21:45;;;;;;;11.73;4.38;;;;;;;9.15;100.00;99741.19;4896551;29;20084;-94
2023/03/21 04:24:12;;;;;;;22.48;5.65;;;;;;;9.43;100.00;99755.69;4896538;29;20045;-96
2023/03/21 04:26:38;;;;;;;25.08;6.43;;;;;;;9.19;100.00;99741.81;4896875;29;20111;-94
2023/03/21 04:29:04;;;;;;;20.92;5.88;;;;;;;9.08;100.00;99732.19;4897843;29;20032;-94
2023/03/21 04:31:32;;;;;;;20.52;4.70;;;;;;;9.47;100.00;99769.22;4896774;29;20047;-94
2023/03/21 04:34:02;;;;;;;15.30;4.63;;;;;;;9.56;100.00;99757.50;4906902;29;20036;-94
2023/03/21 04:36:29;;;;;;;13.02;4.35;;;;;;;9.57;100.00;99743.72;4915350;29;20032;-94
2023/03/21 04:39:00;;;;;;;13.50;3.92;;;;;;;9.58;100.00;99740.19;4931410;29;20021;-94
2023/03/21 04:41:26;;;;;;;16.65;3.80;;;;;;;9.64;100.00;99745.78;4915627;29;20063;-94
2023/03/21 04:43:52;;;;;;;15.10;3.58;;;;;;;9.64;100.00;99773.31;4947124;28;20032;-94
2023/03/21 04:46:18;;;;;;;12.38;3.67;;;;;;;9.57;100.00;99770.28;4915254;29;20028;-94
2023/03/21 04:48:43;;;;;;;7.90;2.88;;;;;;;9.46;100.00;99751.28;4931225;28;20119;-94
2023/03/21 04:51:08;;;;;;;11.68;4.45;;;;;;;9.54;100.00;99767.09;4912105;29;20092;-94
2023/03/21 04:53:34;;;;;;;7.28;2.58;;;;;;;9.40;100.00;99745.59;4912244;29;20111;-93
2023/03/21 04:56:00;;;;;;;9.43;2.63;;;;;;;9.54;100.00;99756.78;4914464;29;20021;-94
2023/03/21 04:58:26;;;;;;;6.03;2.83;;;;;;;9.42;100.00;99730.06;4916076;29;20041;-95
2023/03/21 05:00:51;;;;;;;9.75;2.90;;;;;;;9.48;100.00;99744.28;4915080;29;20072;-94
2023/03/21 05:03:20;;;;;;;8.20;2.70;;;;;;;9.49;100.00;99738.22;4900391;29;20068;-95
2023/03/21 05:05:46;;;;;;;12.88;3.40;;;;;;;9.46;100.00;99751.28;4931861;29;20373;-94
2023/03/21 05:08:12;;;;;;;10.40;3.58;;;;;;;9.48;100.00;99733.97;4900519;29;20024;-95
2023/03/21 05:10:38;;;;;;;19.58;3.60;;;;;;;9.53;100.00;99743.06;4914955;29;20067;-94
2023/03/21 05:13:04;;;;;;;12.55;3.83;;;;;;;9.52;100.00;99745.75;4915969;29;20060;-94
2023/03/21 05:15:30;;;;;;;8.90;3.55;;;;;;;9.54;100.00;99739.56;4915984;29;20028;-94
2023/03/21 05:17:57;;;;;;;14.35;3.53;;;;;;;9.60;100.00;99720.31;4915952;29;20024;-93
2023/03/21 05:20:23;;;;;;;15.02;4.82;;;;;;;9.58;100.00;99724.72;4915493;29;20028;-94
2023/03/21 05:22:50;;;;;;;14.77;3.97;;;;;;;9.48;100.00;99700.50;4915766;29;20036;-94
2023/03/21 05:25:32;;;;;;;12.60;4.07;;;;;;;9.60;100.00;99717.75;4912779;29;20394;-93
2023/03/21 05:28:00;;;;;;;16.98;4.38;;;;;;;9.52;100.00;99709.69;4918916;29;20087;-95
2023/03/21 05:30:27;;;;;;;18.60;4.25;;;;;;;9.64;100.00;99734.66;4934578;29;20087;-96
2023/03/21 05:32:53;;;;;;;11.85;3.75;;;;;;;9.74;100.00;99717.66;4934358;29;20032;-94
2023/03/21 05:35:18;;;;;;;19.45;3.90;;;;;;;9.60;100.00;99723.72;4950559;28;20028;-95
2023/03/21 05:37:44;;;;;;;14.27;6.03;;;;;;;9.52;100.00;99718.25;4950632;28;20024;-95
2023/03/21 05:40:10;;;;;;;14.13;3.97;;;;;;;9.44;100.00;99707.63;4900263;29;20060;-94
2023/03/21 05:42:35;;;;;;;17.10;4.32;;;;;;;9.42;100.00;99699.97;4899851;29;20029;-94
2023/03/21 05:45:00;;;;;;;9.32;3.83;;;;;;;9.60;100.00;99722.88;4915243;29;20047;-95
2023/03/21 05:47:26;;;;;;;11.10;3.88;;;;;;;9.40;100.00;99696.66;4915504;29;20519;-95
2023/03/21 05:49:51;;;;;;;13.02;3.95;;;;;;;9.61;100.00;99703.94;4899568;29;20041;-94
2023/03/21 05:52:17;;;;;;;17.20;3.80;;;;;;;9.58;100.00;99692.09;4915125;29;20240;-96
2023/03/21 05:54:43;;;;;;;14.75;3.97;;;;;;;9.67;100.00;99702.72;4929615;29;20491;-95
2023/03/21 05:57:08;;;;;;;14.18;2.60;;;;;;;9.60;100.00;99704.84;4918373;29;20055;-96
2023/03/21 05:59:34;;;;;;;17.08;2.88;;;;;;;9.61;100.00;99701.38;4934170;29;20028;-94
2023/03/21 06:01:59;;;;;;;11.50;3.90;;;;;;;9.74;100.00;99717.66;4918391;29;20024;-94
2023/03/21 06:04:25;;;;;;;7.35;2.78;;;;;;;9.77;100.00;99722.63;4934300;29;20428;-95
2023/03/21 06:06:52;;;;;;;19.65;4.05;;;;;;;9.62;100.00;99721.03;4949465;28;20036;-95
2023/03/21 06:09:19;;;;;;;17.40;4.05;;;;;;;9.40;100.00;99678.63;4902376;29;20056;-95
2023/03/21 06:11:51;;;;;;;19.27;3.95;;;;;;;9.58;100.00;99699.81;4899089;29;20039;-96
2023/03/21 06:14:17;;;;;;;11.50;3.10;;;;;;;9.58;100.00;99725.59;4899317;29;20068;-96
2023/03/21 06:16:43;;;;;;;15.00;3.13;;;;;;;9.52;100.00;99720.81;4899188;29;20480;-96
2023/03/21 06:19:09;;;;;;;20.67;4.75;;;;;;;9.43;100.00;99690.50;4930840;29;20092;-96
2023/03/21 06:21:34;;;;;;;23.30;5.30;;;;;;;9.58;100.00;99719.59;4930278;29;20028;-95
2023/03/21 06:24:03;;;;;;;28.50;4.03;;;;;;;9.49;100.00;99710.72;4910740;29;20077;-96
2023/03/21 06:26:28;;;;;;;23.50;4.80;;;;;;;9.56;100.00;99705.97;4934138;29;20051;-96
2023/03/21 06:28:54;;;;;;;19.90;3.20;;;;;;;9.47;100.00;99706.59;4934661;29;20479;-96
2023/03/21 06:31:26;;;;;;;20.70;4.35;;;;;;;9.41;100.00;99685.47;4919136;29;20028;-96
2023/03/21 06:36:53;;;;;;;25.75;4.50;;;;;;;9.24;100.00;99684.88;4891218;29;19935;-96
2023/03/21 06:41:54;;;;;;;20.02;4.22;;;;;;;9.25;100.00;99696.84;5467921;23;20063;-95
2023/03/21 06:44:20;;;;;;;28.33;4.80;;;;;;;9.29;100.00;99693.13;4918915;29;20032;-96
2023/03/21 06:47:02;;;;;;;28.20;4.70;;;;;;;9.37;100.00;99694.28;4918643;29;20119;-96
2023/03/21 06:49:28;;;;;;;;;;;;;;;9.69;100.00;99722.28;4900838;29;20462;-95
2023/03/21 06:51:57;;;;;;;21.25;3.83;;;;;;;9.66;100.00;99719.94;4913285;29;20017;-96
2023/03/21 06:54:22;;;;;;;17.42;4.47;;;;;;;9.70;100.00;99713.63;4915707;29;20060;-95
2023/03/21 06:56:48;;;;;;;23.88;4.20;;;;;;;9.61;100.00;99703.94;4918105;29;20514;-95
2023/03/21 07:04:58;;;;;;;18.00;3.22;;;;;;;9.58;100.00;99686.94;5197783;23;20055;-96
2023/03/21 07:08:24;;;;;;;26.08;5.57;;;;;;;9.53;100.00;99680.41;4942141;29;20028;-96
2023/03/21 07:10:56;;;;;;;27.77;4.50;;;;;;;9.76;100.00;99702.13;4934978;29;20050;-96
2023/03/21 07:13:21;;;;;;;27.63;3.75;;;;;;;9.63;100.00;99709.81;4936486;29;20076;-96
2023/03/21 07:15:59;;;;;;;25.35;4.60;;;;;;;9.72;100.00;99685.19;4935841;29;20491;-96
2023/03/21 07:18:27;;;;;;;29.52;6.10;;;;;;;9.86;100.00;99724.59;4936340;29;20028;-96
2023/03/21 07:21:17;;;;;;;27.17;3.78;;;;;;;9.96;100.00;99731.72;4940988;29;20103;-96
2023/03/21 07:24:09;;;;;;;24.85;3.90;;;;;;;9.71;100.00;99692.09;4938778;29;20027;-96
2023/03/21 07:26:41;;;;;;;14.50;3.30;;;;;;;10.13;100.00;99725.44;4910942;29;20067;-96
2023/03/21 07:29:06;;;;;;;20.52;3.53;;;;;;;9.89;100.00;99718.41;4936804;29;20031;-96
2023/03/21 07:31:38;;;;;;;29.42;4.63;;;;;;;9.89;100.00;99709.84;4941837;29;20034;-96
2023/03/21 07:34:22;;;;;;;;;;;;;;;;;;;;;
2023/03/21 07:37:00;;;;;;;14.45;3.40;;;;;;;10.37;100.00;99703.19;4939688;29;20030;-95
2023/03/21 07:40:16;;;;;;;17.10;3.38;;;;;;;10.23;100.00;99691.19;4932440;29;20032;-96
2023/03/21 07:43:20;;;;;;;13.18;2.75;;;;;;;10.53;100.00;99728.75;4955865;28;20039;-96
2023/03/21 07:49:36;;;;;;;11.60;3.13;;;;;;;11.02;100.00;99714.19;4940860;29;20031;-96
2023/03/21 07:52:16;;;;;;;14.05;2.45;;;;;;;10.86;100.00;99698.97;4941758;29;20046;-96
2023/03/21 07:55:39;;;;;;;;;;;;;;;;;;;;;
2023/03/21 08:12:50;;;;;;;;;;;;;;;;;;;;;
2023/03/21 08:15:41;;;;;;;;;;;;;;;;;;;;;
2023/03/21 08:21:19;;;;;;;11.93;1.67;;;;;;;11.22;100.00;99705.03;4879643;29;19923;-96
2023/03/21 08:23:57;;;;;;;12.88;1.88;;;;;;;10.94;100.00;99699.22;4867348;29;20372;-95
2023/03/21 08:26:31;;;;;;;9.60;3.22;;;;;;;11.67;100.00;99698.25;4905176;29;20036;-95
2023/03/21 08:31:48;;;;;;;15.57;2.50;;;;;;;11.56;100.00;99713.75;4944948;29;20075;-96
2023/03/21 08:34:27;;;;;;;9.30;1.73;;;;;;;11.27;100.00;99728.78;4937331;29;20086;-95
2023/03/21 08:38:55;;;;;;;8.45;1.42;;;;;;;11.31;100.00;99741.38;4947023;29;20525;-96
2023/03/21 08:43:40;;;;;;;10.65;1.55;;;;;;;11.93;100.00;99706.69;4917420;29;20036;-96
2023/03/21 08:46:06;;;;;;;3.78;1.10;;;;;;;11.99;100.00;99700.22;4933315;29;20057;-96
2023/03/21 09:04:44;;;;;;;6.55;0.73;;;;;;;12.31;95.55;99739.19;5614427;23;20052;-96
2023/03/21 09:07:11;;;;;;;5.32;1.10;;;;;;;12.22;93.98;99726.97;4915012;29;20036;-96
2023/03/21 09:09:37;;;;;;;7.10;0.88;;;;;;;12.70;93.22;99731.06;4913868;29;20027;-96
2023/03/21 09:12:13;;;;;;;4.25;0.93;;;;;;;12.98;92.66;99740.13;4919994;29;20087;-96
2023/03/21 09:14:38;;;;;;;5.60;0.85;;;;;;;13.12;91.13;99726.91;4918440;29;20064;-96
2023/03/21 09:17:07;;;;;;;7.05;1.27;;;;;;;13.25;89.73;99737.09;4914225;29;20063;-95
2023/03/21 09:19:33;;;;;;;5.57;0.65;;;;;;;12.81;87.80;99734.47;4911455;29;20028;-96
2023/03/21 09:21:59;;;;;;;6.05;1.08;;;;;;;12.97;89.50;99730.69;4912274;29;20387;-96
2023/03/21 09:24:25;;;;;;;2.90;0.68;;;;;;;13.10;90.84;99748.69;4900855;29;20044;-96
2023/03/21 09:26:52;;;;;;;6.95;1.20;;;;;;;13.06;88.64;99750.69;4911043;29;20043;-96
2023/03/21 09:29:24;;;;;;;6.47;0.88;;;;;;;13.47;86.29;99756.97;4917465;29;20039;-96
2023/03/21 09:31:52;;;;;;;4.22;0.95;;;;;;;12.98;86.30;99753.06;4915844;29;20795;-95
2023/03/21 09:34:17;;;;;;;2.78;0.77;;;;;;;13.03;85.20;99753.53;4915044;29;20036;-96
2023/03/21 09:36:43;;;;;;;3.80;0.70;;;;;;;13.04;84.56;99771.53;4932344;29;20058;-96
2023/03/21 09:39:10;;;;;;;6.55;0.80;;;;;;;13.36;84.02;99762.19;4913593;29;20039;-96
2023/03/21 09:41:56;;;;;;;4.38;0.82;;;;;;;13.59;79.03;99771.53;4914665;29;20028;-96
2023/03/21 09:45:14;;;;;;;4.38;0.85;;;;;;;14.04;77.74;99750.56;4916303;29;20622;-95
2023/03/21 09:47:52;;;;;;;7.50;1.15;;;;;;;15.40;71.54;99735.44;4930141;29;20396;-95
2023/03/21 09:50:33;;;;;;;8.63;1.00;;;;;;;16.14;68.30;99741.88;4916902;29;20040;-96
2023/03/21 09:53:06;;;;;;;7.78;0.95;;;;;;;15.21;69.04;99732.84;4917697;29;20224;-96
2023/03/21 09:55:37;;;;;;;3.47;1.05;;;;;;;16.04;70.72;99723.66;4915054;29;20388;-96
2023/03/21 09:58:12;;;;;;;9.93;1.30;;;;;;;16.00;67.01;99753.53;4919125;29;20032;-96
2023/03/21 10:00:42;;;;;;;6.05;0.88;;;;;;;17.16;63.04;99735.78;4935465;29;20040;-96
2023/03/21 10:03:23;;;;;;;6.82;0.73;;;;;;;17.21;60.92;99730.94;4923015;29;20036;-96
2023/03/21 10:05:51;;;;;;;5.60;0.70;;;;;;;17.01;63.22;99743.28;4916970;29;20024;-94
2023/03/21 10:08:26;;;;;;;3.38;0.60;;;;;;;14.99;66.46;99732.13;4918050;29;20331;-94
2023/03/21 10:11:00;;;;;;;4.22;0.52;;;;;;;14.32;70.64;99743.91;4914786;29;20471;-94
2023/03/21 10:13:31;;;;;;;6.72;0.73;;;;;;;14.28;72.45;99710.53;4917891;29;20387;-95
2023/03/21 10:15:59;;;;;;;4.63;1.10;;;;;;;14.52;70.89;99720.63;4914844;29;20512;-94
2023/03/21 10:18:28;;;;;;;2.88;0.43;;;;;;;14.68;71.99;99697.59;4914623;29;20127;-96
2023/03/21 10:20:53;;;;;;;5.03;0.80;;;;;;;17.49;61.11;99704.78;4916753;29;20033;-96
2023/03/21 10:23:24;;;;;;;3.80;0.52;;;;;;;18.23;58.97;99862.84;4918004;29;20040;-96
2023/03/21 10:25:54;;;;;;;3.85;0.55;;;;;;;17.83;59.50;99702.31;4918212;29;20039;-95
2023/03/21 10:28:24;;;;;;;3.10;0.80;;;;;;;17.92;59.11;99698.78;4918029;29;20032;-96
2023/03/21 10:30:54;;;;;;;5.05;0.80;;;;;;;17.24;59.91;99716.78;4914715;29;20123;-95
2023/03/21 10:33:23;;;;;;;3.33;0.70;;;;;;;17.19;61.28;99703.38;4898951;29;20029;-95
2023/03/21 10:35:54;;;;;;;2.38;0.30;;;;;;;17.61;60.32;99708.81;4933387;29;20184;-96
2023/03/21 10:38:23;;;;;;;3.22;0.40;;;;;;;17.80;61.02;99704.34;4917826;29;20454;-96
2023/03/21 10:40:49;;;;;;;3.17;0.40;;;;;;;18.57;58.97;99692.22;4915230;29;20032;-96
2023/03/21 10:43:27;;;;;;;2.72;0.35;;;;;;;17.72;60.17;99705.13;4904415;29;20032;-96
2023/03/21 10:45:53;;;;;;;4.57;0.63;;;;;;;17.64;59.89;99685.00;4919296;29;20024;-95
2023/03/21 10:48:20;;;;;;;3.03;0.25;;;;;;;15.97;61.73;99695.72;4917740;29;20028;-96
2023/03/21 10:50:48;;;;;;;3.67;0.55;;;;;;;15.67;66.42;99700.13;4914855;29;20510;-95
2023/03/21 10:53:19;;;;;;;3.08;0.30;;;;;;;15.01;72.49;99703.41;4898919;29;20036;-96
2023/03/21 10:56:05;;;;;;;1.83;0.30;;;;;;;15.22;69.75;99705.91;4898479;29;20024;-96
2023/03/21 10:58:38;;;;;;;1.30;0.30;;;;;;;17.79;60.87;99723.59;4891982;29;20040;-95
2023/03/21 11:01:08;;;;;;;2.17;0.20;;;;;;;16.89;62.94;99708.78;4899018;29;20123;-95
2023/03/21 11:03:42;;;;;;;0.63;0.15;;;;;;;19.20;56.59;99702.19;4900928;29;20043;-96
2023/03/21 11:06:21;;;;;;;2.05;0.50;;;;;;;24.18;43.63;99628.63;4917036;29;20032;-95
2023/03/21 11:08:54;;;;;;;0.40;0.05;;;;;;;27.20;40.30;99595.13;4917248;29;20039;-95
2023/03/21 11:11:26;;;;;;;4.45;0.40;;;;;;;28.59;38.18;99624.59;4933026;29;20024;-96
2023/03/21 11:13:58;;;;;;;1.52;0.30;;;;;;;28.52;36.35;99690.25;4922924;29;20539;-96
2023/03/21 11:16:30;;;;;;;1.25;0.25;;;;;;;28.22;34.98;99593.88;4917421;29;20091;-95
2023/03/21 11:19:00;;;;;;;0.95;0.10;;;;;;;31.47;32.76;99660.59;4917390;29;20063;-96
2023/03/21 11:21:27;;;;;;;0.47;0.10;;;;;;;31.28;32.58;99689.34;4916471;29;20126;-94
2023/03/21 11:23:55;;;;;;;0.90;0.13;;;;;;;30.15;31.52;99663.31;4916969;29;20424;-94
2023/03/21 11:26:26;;;;;;;0.88;0.20;;;;;;;28.68;33.37;99674.72;4917159;29;20051;-96
2023/03/21 11:28:53;;;;;;;0.93;0.20;;;;;;;26.53;37.55;99678.63;4915117;29;20024;-96
2023/03/21 11:31:19;;;;;;;2.05;0.45;;;;;;;25.37;38.80;99690.66;4916848;29;20028;-94
2023/03/21 11:33:55;;;;;;;0.98;0.10;;;;;;;22.32;45.77;99690.19;4916408;29;20024;-94
2023/03/21 11:36:20;;;;;;;0.22;0.08;;;;;;;21.34;47.49;99708.47;4916270;29;20080;-96
2023/03/21 11:38:57;;;;;;;2.00;0.50;;;;;;;20.66;49.54;99683.00;4916508;29;20032;-96
2023/03/21 11:41:28;;;;;;;26.08;11.23;;;;;;;18.99;53.06;99684.34;4916642;29;20028;-96
2023/03/21 11:43:54;;;;;;;2.53;0.43;;;;;;;16.93;57.61;99711.94;4912960;29;20040;-96
2023/03/21 11:46:25;;;;;;;3.55;0.50;;;;;;;16.99;58.34;99721.75;4913512;29;20024;-96
2023/03/21 11:48:51;;;;;;;1.33;0.30;;;;;;;15.48;63.56;99715.75;4913277;29;20020;-96
2023/03/21 11:51:34;;;;;;;5.45;1.40;;;;;;;16.55;63.29;99729.34;4897681;29;20025;-96
2023/03/21 11:54:10;;;;;;;;;;;;;;;17.24;59.03;99722.84;4913938;29;20032;-96
2023/03/21 11:56:38;;;;;;;;;;;;;;;18.46;55.64;99721.25;4898096;29;20009;-96
2023/03/21 11:59:16;;;;;;;;;;;;;;;19.08;52.73;99724.41;4911919;29;19918;-96
2023/03/21 12:01:44;;;;;;;;;;;;;;;19.26;52.05;99721.66;4917676;29;20289;-96
2023/03/21 12:04:28;;;;;;;;;;;;;;;18.80;53.89;99732.53;4916958;29;19915;-96
2023/03/21 12:07:20;;;;;;;;;;;;;;;19.13;54.60;99732.59;4917565;29;19957;-95
2023/03/21 12:09:49;;;;;;;;;;;;;;;18.00;56.05;99731.94;4916516;29;19915;-96
2023/03/21 12:12:30;;;;;;;;;;;;;;;18.52;54.41;99724.06;4916635;29;19919;-95
2023/03/21 12:14:55;;;;;;;;;;;;;;;19.25;52.24;99710.38;4916667;29;19919;-95
2023/03/21 12:17:21;;;;;;;;;;;;;;;19.53;51.61;99712.72;4916697;29;19927;-94
2023/03/21 12:20:12;;;;;;;;;;;;;;;19.73;51.23;99701.91;4916684;29;20009;-95
2023/03/21 12:22:51;;;;;;;;;;;;;;;20.30;49.02;99704.41;4928436;29;19927;-94
2023/03/21 12:25:20;;;;;;;;;;;;;;;21.32;47.98;99704.38;4916347;29;20370;-94
2023/03/21 12:28:00;;;;;;;;;;;;;;;19.88;47.40;99701.06;4912470;29;20412;-94
2023/03/21 12:30:29;;;;;;;;;;;;;;;18.68;51.04;99698.94;4897564;29;20315;-95
2023/03/21 12:33:03;;;;;;;;;;;;;;;20.07;48.10;99689.41;4914023;29;19915;-95
2023/03/21 12:35:38;;;;;;;;;;;;;;;20.45;48.01;99694.84;4914468;29;19915;-95
2023/03/21 12:38:03;;;;;;;;;;;;;;;20.67;45.82;99695.09;4932709;29;20365;-95
2023/03/21 12:40:47;;;;;;;;;;;;;;;20.44;46.05;99690.59;4916578;29;19962;-94
2023/03/21 12:43:12;;;;;;;;;;;;;;;22.42;43.82;99701.22;4912741;29;19919;-95
2023/03/21 12:45:40;;;;;;;;;;;;;;;21.09;45.15;99693.88;4916640;29;19911;-95
2023/03/21 12:48:15;;;;;;;;;;;;;;;20.24;46.55;99705.06;4916738;29;19915;-95
2023/03/21 12:50:42;;;;;;;;;;;;;;;19.58;48.43;99702.56;4916656;29;19918;-94
2023/03/21 12:53:23;;;;;;;;;;;;;;;20.72;46.92;99703.28;4917203;29;20365;-94